KSOW/SOW METAR and TAF weather

Enter ICAO airport designator
Station Type Date Time Source
KSOW METAR 2022/11/26 09:35 UTC NOAA

KSOW 260935Z AUTO 18004KT 10SM CLR M05/M11 A3024 RMK AO2


Station Type Date Time Source
KSOW Decoded METAR 2022/11/26 09:35 UTC NOAA

Show Low, Show Low Regional Airport, AZ, United States (KSOW) 34-15-55N 110-00-20W
Nov 26, 2022 - 04:35 AM EST / 2022.11.26 0935 UTC
Wind: from the S (180 degrees) at 5 MPH (4 KT):0
Visibility: 10 mile(s):0
Sky conditions: clear
Temperature: 23 F (-5 C)
Windchill: 15 F (-9 C):1
Dew Point: 12 F (-11 C)
Relative Humidity: 62%
Pressure (altimeter): 30.24 in. Hg (1024 hPa)
ob: KSOW 260935Z AUTO 18004KT 10SM CLR M05/M11 A3024 RMK AO2
cycle: 9

Station Type Date Time Source
KSOW TAF UTC NOAA

Error!

Example: see airport list